sensor_id;sensor_type;location;lat;lon;timestamp;temperature;humidity
15231;DHT22;32569;51.762;8.564;2022-09-01T00:02:01;15.30;94.00
15231;DHT22;32569;51.762;8.564;2022-09-01T00:04:34;15.30;94.10
15231;DHT22;32569;51.762;8.564;2022-09-01T00:07:03;15.20;94.20
15231;DHT22;32569;51.762;8.564;2022-09-01T00:09:30;15.30;94.10
15231;DHT22;32569;51.762;8.564;2022-09-01T00:11:57;15.30;94.10
15231;DHT22;32569;51.762;8.564;2022-09-01T00:14:29;15.20;94.20
15231;DHT22;32569;51.762;8.564;2022-09-01T00:16:57;15.20;94.30
15231;DHT22;32569;51.762;8.564;2022-09-01T00:19:24;15.20;94.20
15231;DHT22;32569;51.762;8.564;2022-09-01T00:21:50;15.10;94.20
15231;DHT22;32569;51.762;8.564;2022-09-01T00:24:18;15.20;94.30
15231;DHT22;32569;51.762;8.564;2022-09-01T00:26:45;15.10;94.30
15231;DHT22;32569;51.762;8.564;2022-09-01T00:29:13;15.10;94.40
15231;DHT22;32569;51.762;8.564;2022-09-01T00:31:41;15.10;94.40
15231;DHT22;32569;51.762;8.564;2022-09-01T00:34:08;15.10;94.40
15231;DHT22;32569;51.762;8.564;2022-09-01T00:36:34;15.10;94.40
15231;DHT22;32569;51.762;8.564;2022-09-01T00:39:02;15.10;94.30
15231;DHT22;32569;51.762;8.564;2022-09-01T00:41:31;15.10;94.30
15231;DHT22;32569;51.762;8.564;2022-09-01T00:44:00;15.10;94.30
15231;DHT22;32569;51.762;8.564;2022-09-01T00:46:29;15.10;94.20
15231;DHT22;32569;51.762;8.564;2022-09-01T00:49:01;15.10;94.20
15231;DHT22;32569;51.762;8.564;2022-09-01T00:51:29;15.20;94.10
15231;DHT22;32569;51.762;8.564;2022-09-01T00:53:58;15.10;94.20
15231;DHT22;32569;51.762;8.564;2022-09-01T00:56:26;15.10;94.30
15231;DHT22;32569;51.762;8.564;2022-09-01T00:58:52;15.10;94.40
15231;DHT22;32569;51.762;8.564;2022-09-01T01:01:19;15.00;94.50
15231;DHT22;32569;51.762;8.564;2022-09-01T01:03:47;15.00;94.50
15231;DHT22;32569;51.762;8.564;2022-09-01T01:06:16;15.00;94.60
15231;DHT22;32569;51.762;8.564;2022-09-01T01:08:46;14.90;94.50
15231;DHT22;32569;51.762;8.564;2022-09-01T01:11:24;14.90;94.80
15231;DHT22;32569;51.762;8.564;2022-09-01T01:13:54;14.80;95.00
15231;DHT22;32569;51.762;8.564;2022-09-01T01:16:22;14.80;95.30
15231;DHT22;32569;51.762;8.564;2022-09-01T01:18:49;14.60;95.50
15231;DHT22;32569;51.762;8.564;2022-09-01T01:21:21;14.40;95.90
15231;DHT22;32569;51.762;8.564;2022-09-01T01:24:18;14.30;96.00
15231;DHT22;32569;51.762;8.564;2022-09-01T01:26:45;14.30;95.90
15231;DHT22;32569;51.762;8.564;2022-09-01T01:29:12;14.30;96.00
15231;DHT22;32569;51.762;8.564;2022-09-01T01:31:40;14.30;96.10
15231;DHT22;32569;51.762;8.564;2022-09-01T01:34:07;14.30;96.20
15231;DHT22;32569;51.762;8.564;2022-09-01T01:36:36;14.20;96.30
15231;DHT22;32569;51.762;8.564;2022-09-01T01:39:05;13.90;96.70
15231;DHT22;32569;51.762;8.564;2022-09-01T01:41:35;13.80;96.90
15231;DHT22;32569;51.762;8.564;2022-09-01T01:44:06;13.80;97.00
15231;DHT22;32569;51.762;8.564;2022-09-01T01:46:35;13.70;97.20
15231;DHT22;32569;51.762;8.564;2022-09-01T01:49:02;13.70;97.30
15231;DHT22;32569;51.762;8.564;2022-09-01T01:51:29;13.70;97.50
15231;DHT22;32569;51.762;8.564;2022-09-01T01:53:58;13.50;97.70
15231;DHT22;32569;51.762;8.564;2022-09-01T01:56:26;13.30;98.00
15231;DHT22;32569;51.762;8.564;2022-09-01T01:58:55;13.30;98.10
15231;DHT22;32569;51.762;8.564;2022-09-01T02:01:24;13.40;97.70
15231;DHT22;32569;51.762;8.564;2022-09-01T02:03:53;13.30;97.90
15231;DHT22;32569;51.762;8.564;2022-09-01T02:06:22;13.30;98.00
15231;DHT22;32569;51.762;8.564;2022-09-01T02:08:49;13.30;97.60
15231;DHT22;32569;51.762;8.564;2022-09-01T02:11:17;13.50;97.20
15231;DHT22;32569;51.762;8.564;2022-09-01T02:13:44;13.60;97.00
15231;DHT22;32569;51.762;8.564;2022-09-01T02:16:12;13.60;96.90
15231;DHT22;32569;51.762;8.564;2022-09-01T02:18:42;13.70;96.70
15231;DHT22;32569;51.762;8.564;2022-09-01T02:21:14;13.80;96.60
15231;DHT22;32569;51.762;8.564;2022-09-01T02:23:44;13.70;96.70
15231;DHT22;32569;51.762;8.564;2022-09-01T02:26:11;13.70;96.70
15231;DHT22;32569;51.762;8.564;2022-09-01T02:28:39;13.80;96.50
15231;DHT22;32569;51.762;8.564;2022-09-01T02:31:07;13.80;96.40
15231;DHT22;32569;51.762;8.564;2022-09-01T02:33:37;13.80;96.50
15231;DHT22;32569;51.762;8.564;2022-09-01T02:36:08;13.80;96.40
15231;DHT22;32569;51.762;8.564;2022-09-01T02:38:37;13.80;96.40
15231;DHT22;32569;51.762;8.564;2022-09-01T02:41:07;13.70;96.50
15231;DHT22;32569;51.762;8.564;2022-09-01T02:43:34;13.70;96.60
15231;DHT22;32569;51.762;8.564;2022-09-01T02:46:01;13.60;96.70
15231;DHT22;32569;51.762;8.564;2022-09-01T02:48:32;13.50;96.90
15231;DHT22;32569;51.762;8.564;2022-09-01T02:51:02;13.50;96.90
15231;DHT22;32569;51.762;8.564;2022-09-01T02:53:31;13.50;97.00
15231;DHT22;32569;51.762;8.564;2022-09-01T02:55:58;13.50;97.20
15231;DHT22;32569;51.762;8.564;2022-09-01T02:58:27;13.40;97.30
15231;DHT22;32569;51.762;8.564;2022-09-01T03:00:55;13.20;97.60
15231;DHT22;32569;51.762;8.564;2022-09-01T03:03:22;13.20;97.60
15231;DHT22;32569;51.762;8.564;2022-09-01T03:05:51;13.20;97.80
15231;DHT22;32569;51.762;8.564;2022-09-01T03:08:22;13.10;97.90
15231;DHT22;32569;51.762;8.564;2022-09-01T03:10:49;13.10;98.00
15231;DHT22;32569;51.762;8.564;2022-09-01T03:13:20;12.90;98.20
15231;DHT22;32569;51.762;8.564;2022-09-01T03:15:49;12.90;98.40
15231;DHT22;32569;51.762;8.564;2022-09-01T03:18:16;12.90;98.30
15231;DHT22;32569;51.762;8.564;2022-09-01T03:20:44;12.70;98.70
15231;DHT22;32569;51.762;8.564;2022-09-01T03:23:13;12.70;98.80
15231;DHT22;32569;51.762;8.564;2022-09-01T03:25:42;12.50;99.10
15231;DHT22;32569;51.762;8.564;2022-09-01T03:28:10;12.40;99.40
15231;DHT22;32569;51.762;8.564;2022-09-01T03:30:39;12.30;99.60
15231;DHT22;32569;51.762;8.564;2022-09-01T03:33:09;12.40;99.80
15231;DHT22;32569;51.762;8.564;2022-09-01T03:35:36;12.50;99.50
15231;DHT22;32569;51.762;8.564;2022-09-01T03:38:03;12.40;99.60
15231;DHT22;32569;51.762;8.564;2022-09-01T03:40:32;12.50;99.50
15231;DHT22;32569;51.762;8.564;2022-09-01T03:43:04;12.50;99.40
15231;DHT22;32569;51.762;8.564;2022-09-01T03:45:31;12.40;99.90
15231;DHT22;32569;51.762;8.564;2022-09-01T03:48:03;12.20;99.90
15231;DHT22;32569;51.762;8.564;2022-09-01T03:50:34;12.30;99.90
15231;DHT22;32569;51.762;8.564;2022-09-01T03:53:06;12.40;99.90
15231;DHT22;32569;51.762;8.564;2022-09-01T03:55:34;12.30;99.90
15231;DHT22;32569;51.762;8.564;2022-09-01T03:58:05;12.30;99.90
15231;DHT22;32569;51.762;8.564;2022-09-01T04:00:35;12.20;99.90
15231;DHT22;32569;51.762;8.564;2022-09-01T04:03:04;12.20;99.90
15231;DHT22;32569;51.762;8.564;2022-09-01T04:05:33;12.20;99.90
15231;DHT22;32569;51.762;8.564;2022-09-01T04:08:04;12.10;99.90
15231;DHT22;32569;51.762;8.564;2022-09-01T04:10:35;12.20;99.90
15231;DHT22;32569;51.762;8.564;2022-09-01T04:13:04;12.20;99.90
15231;DHT22;32569;51.762;8.564;2022-09-01T04:15:36;12.20;99.90
15231;DHT22;32569;51.762;8.564;2022-09-01T04:18:03;12.20;99.90
15231;DHT22;32569;51.762;8.564;2022-09-01T04:20:34;12.20;99.90
15231;DHT22;32569;51.762;8.564;2022-09-01T04:23:12;12.20;99.90
15231;DHT22;32569;51.762;8.564;2022-09-01T04:25:45;12.30;99.90
15231;DHT22;32569;51.762;8.564;2022-09-01T04:28:16;12.40;99.90
15231;DHT22;32569;51.762;8.564;2022-09-01T04:30:50;12.40;99.90
15231;DHT22;32569;51.762;8.564;2022-09-01T04:33:18;12.40;99.90
15231;DHT22;32569;51.762;8.564;2022-09-01T04:35:45;12.20;99.90
15231;DHT22;32569;51.762;8.564;2022-09-01T04:38:11;12.30;99.90
15231;DHT22;32569;51.762;8.564;2022-09-01T04:40:41;12.10;99.90
15231;DHT22;32569;51.762;8.564;2022-09-01T04:43:07;12.10;99.90
15231;DHT22;32569;51.762;8.564;2022-09-01T04:45:36;12.10;99.90
15231;DHT22;32569;51.762;8.564;2022-09-01T04:48:04;12.00;99.90
15231;DHT22;32569;51.762;8.564;2022-09-01T04:50:31;12.00;99.90
15231;DHT22;32569;51.762;8.564;2022-09-01T04:53:00;12.10;99.90
15231;DHT22;32569;51.762;8.564;2022-09-01T04:55:27;12.10;99.90
15231;DHT22;32569;51.762;8.564;2022-09-01T04:57:56;12.10;99.90
15231;DHT22;32569;51.762;8.564;2022-09-01T05:00:25;12.10;99.90
15231;DHT22;32569;51.762;8.564;2022-09-01T05:02:55;12.10;99.90
15231;DHT22;32569;51.762;8.564;2022-09-01T05:05:28;12.10;99.90
15231;DHT22;32569;51.762;8.564;2022-09-01T05:07:54;11.80;99.90
15231;DHT22;32569;51.762;8.564;2022-09-01T05:10:22;11.60;99.90
15231;DHT22;32569;51.762;8.564;2022-09-01T05:12:54;11.70;99.90
15231;DHT22;32569;51.762;8.564;2022-09-01T05:15:21;12.30;99.90
15231;DHT22;32569;51.762;8.564;2022-09-01T05:17:48;13.20;99.50
15231;DHT22;32569;51.762;8.564;2022-09-01T05:20:18;13.80;98.40
15231;DHT22;32569;51.762;8.564;2022-09-01T05:22:46;14.30;97.60
15231;DHT22;32569;51.762;8.564;2022-09-01T05:25:12;14.90;96.70
15231;DHT22;32569;51.762;8.564;2022-09-01T05:27:41;15.20;96.10
15231;DHT22;32569;51.762;8.564;2022-09-01T05:30:14;15.10;96.40
15231;DHT22;32569;51.762;8.564;2022-09-01T05:32:43;15.20;96.30
15231;DHT22;32569;51.762;8.564;2022-09-01T05:35:14;15.70;95.70
15231;DHT22;32569;51.762;8.564;2022-09-01T05:37:42;16.70;94.60
15231;DHT22;32569;51.762;8.564;2022-09-01T05:40:09;17.30;93.80
15231;DHT22;32569;51.762;8.564;2022-09-01T05:42:40;17.60;93.40
15231;DHT22;32569;51.762;8.564;2022-09-01T05:45:08;17.50;93.60
15231;DHT22;32569;51.762;8.564;2022-09-01T05:47:36;17.50;93.50
15231;DHT22;32569;51.762;8.564;2022-09-01T05:50:03;17.00;94.20
15231;DHT22;32569;51.762;8.564;2022-09-01T05:52:32;16.20;95.00
15231;DHT22;32569;51.762;8.564;2022-09-01T05:55:01;15.80;95.90
15231;DHT22;32569;51.762;8.564;2022-09-01T05:57:27;16.10;95.50
15231;DHT22;32569;51.762;8.564;2022-09-01T05:59:54;16.00;95.70
15231;DHT22;32569;51.762;8.564;2022-09-01T06:02:21;16.10;95.90
15231;DHT22;32569;51.762;8.564;2022-09-01T06:04:48;16.00;95.80
15231;DHT22;32569;51.762;8.564;2022-09-01T06:07:15;15.60;96.40
15231;DHT22;32569;51.762;8.564;2022-09-01T06:09:44;15.50;97.00
15231;DHT22;32569;51.762;8.564;2022-09-01T06:12:13;15.30;97.20
15231;DHT22;32569;51.762;8.564;2022-09-01T06:14:43;15.10;97.50
15231;DHT22;32569;51.762;8.564;2022-09-01T06:17:10;15.20;97.70
15231;DHT22;32569;51.762;8.564;2022-09-01T06:19:40;15.30;97.90
15231;DHT22;32569;51.762;8.564;2022-09-01T06:22:08;15.40;98.10
15231;DHT22;32569;51.762;8.564;2022-09-01T06:24:35;15.30;97.70
15231;DHT22;32569;51.762;8.564;2022-09-01T06:27:04;15.00;98.20
15231;DHT22;32569;51.762;8.564;2022-09-01T06:29:35;14.70;98.20
15231;DHT22;32569;51.762;8.564;2022-09-01T06:32:04;14.50;98.60
15231;DHT22;32569;51.762;8.564;2022-09-01T06:34:34;14.60;99.20
15231;DHT22;32569;51.762;8.564;2022-09-01T06:37:01;14.60;99.00
15231;DHT22;32569;51.762;8.564;2022-09-01T06:39:28;14.60;99.40
15231;DHT22;32569;51.762;8.564;2022-09-01T06:41:56;14.70;99.20
15231;DHT22;32569;51.762;8.564;2022-09-01T06:44:23;14.70;99.40
15231;DHT22;32569;51.762;8.564;2022-09-01T06:46:51;14.80;99.10
15231;DHT22;32569;51.762;8.564;2022-09-01T06:49:19;14.80;99.10
15231;DHT22;32569;51.762;8.564;2022-09-01T06:51:48;14.80;99.10
15231;DHT22;32569;51.762;8.564;2022-09-01T06:54:17;15.00;99.20
15231;DHT22;32569;51.762;8.564;2022-09-01T06:56:44;15.20;98.70
15231;DHT22;32569;51.762;8.564;2022-09-01T06:59:11;15.30;98.30
15231;DHT22;32569;51.762;8.564;2022-09-01T07:01:39;15.30;98.80
15231;DHT22;32569;51.762;8.564;2022-09-01T07:04:08;15.40;98.40
15231;DHT22;32569;51.762;8.564;2022-09-01T07:06:35;15.50;98.60
15231;DHT22;32569;51.762;8.564;2022-09-01T07:09:05;15.80;98.70
15231;DHT22;32569;51.762;8.564;2022-09-01T07:11:32;15.90;98.20
15231;DHT22;32569;51.762;8.564;2022-09-01T07:14:02;16.00;97.70
15231;DHT22;32569;51.762;8.564;2022-09-01T07:16:31;15.90;97.90
15231;DHT22;32569;51.762;8.564;2022-09-01T07:19:04;16.20;97.80
15231;DHT22;32569;51.762;8.564;2022-09-01T07:21:32;16.20;97.80
15231;DHT22;32569;51.762;8.564;2022-09-01T07:23:59;16.40;97.70
15231;DHT22;32569;51.762;8.564;2022-09-01T07:26:29;16.70;98.10
15231;DHT22;32569;51.762;8.564;2022-09-01T07:28:56;16.90;97.30
15231;DHT22;32569;51.762;8.564;2022-09-01T07:31:24;16.90;97.50
15231;DHT22;32569;51.762;8.564;2022-09-01T07:33:53;17.10;97.40
15231;DHT22;32569;51.762;8.564;2022-09-01T07:36:23;17.20;96.70
15231;DHT22;32569;51.762;8.564;2022-09-01T07:38:51;17.30;96.70
15231;DHT22;32569;51.762;8.564;2022-09-01T07:41:20;17.40;96.30
15231;DHT22;32569;51.762;8.564;2022-09-01T07:43:48;17.40;96.00
15231;DHT22;32569;51.762;8.564;2022-09-01T07:46:18;17.70;95.70
15231;DHT22;32569;51.762;8.564;2022-09-01T07:48:45;17.70;95.40
15231;DHT22;32569;51.762;8.564;2022-09-01T07:51:13;17.70;95.20
15231;DHT22;32569;51.762;8.564;2022-09-01T07:53:43;17.90;95.40
15231;DHT22;32569;51.762;8.564;2022-09-01T07:56:11;18.10;94.70
15231;DHT22;32569;51.762;8.564;2022-09-01T07:58:39;18.00;94.90
15231;DHT22;32569;51.762;8.564;2022-09-01T08:01:07;18.10;95.00
15231;DHT22;32569;51.762;8.564;2022-09-01T08:03:34;18.30;94.70
15231;DHT22;32569;51.762;8.564;2022-09-01T08:06:03;18.20;94.50
15231;DHT22;32569;51.762;8.564;2022-09-01T08:08:31;18.20;94.70
15231;DHT22;32569;51.762;8.564;2022-09-01T08:10:58;18.30;94.40
15231;DHT22;32569;51.762;8.564;2022-09-01T08:13:25;18.60;94.60
15231;DHT22;32569;51.762;8.564;2022-09-01T08:15:52;18.50;94.40
15231;DHT22;32569;51.762;8.564;2022-09-01T08:18:19;18.60;94.30
15231;DHT22;32569;51.762;8.564;2022-09-01T08:20:46;18.80;94.50
15231;DHT22;32569;51.762;8.564;2022-09-01T08:23:14;19.00;94.20
15231;DHT22;32569;51.762;8.564;2022-09-01T08:25:42;18.90;93.90
15231;DHT22;32569;51.762;8.564;2022-09-01T08:28:10;19.00;94.00
15231;DHT22;32569;51.762;8.564;2022-09-01T08:30:40;18.90;93.90
15231;DHT22;32569;51.762;8.564;2022-09-01T08:33:08;18.90;94.30
15231;DHT22;32569;51.762;8.564;2022-09-01T08:35:37;19.10;93.60
15231;DHT22;32569;51.762;8.564;2022-09-01T08:38:04;19.10;93.50
15231;DHT22;32569;51.762;8.564;2022-09-01T08:40:30;19.10;94.00
15231;DHT22;32569;51.762;8.564;2022-09-01T08:43:05;19.40;93.80
15231;DHT22;32569;51.762;8.564;2022-09-01T08:45:40;19.70;93.20
15231;DHT22;32569;51.762;8.564;2022-09-01T08:48:14;19.70;92.30
15231;DHT22;32569;51.762;8.564;2022-09-01T08:50:43;19.70;92.40
15231;DHT22;32569;51.762;8.564;2022-09-01T08:53:18;19.60;92.50
15231;DHT22;32569;51.762;8.564;2022-09-01T08:55:52;19.70;92.30
15231;DHT22;32569;51.762;8.564;2022-09-01T08:58:19;19.80;91.80
15231;DHT22;32569;51.762;8.564;2022-09-01T09:00:50;19.80;91.80
15231;DHT22;32569;51.762;8.564;2022-09-01T09:03:26;19.90;91.70
15231;DHT22;32569;51.762;8.564;2022-09-01T09:06:05;20.00;91.40
15231;DHT22;32569;51.762;8.564;2022-09-01T09:11:33;20.20;91.40
15231;DHT22;32569;51.762;8.564;2022-09-01T09:14:10;20.40;90.20
15231;DHT22;32569;51.762;8.564;2022-09-01T09:16:42;20.50;90.60
15231;DHT22;32569;51.762;8.564;2022-09-01T09:19:15;20.60;90.10
15231;DHT22;32569;51.762;8.564;2022-09-01T09:21:46;20.50;90.30
15231;DHT22;32569;51.762;8.564;2022-09-01T09:24:18;20.70;90.00
15231;DHT22;32569;51.762;8.564;2022-09-01T09:26:48;20.90;88.90
15231;DHT22;32569;51.762;8.564;2022-09-01T09:29:14;20.80;88.90
15231;DHT22;32569;51.762;8.564;2022-09-01T09:31:43;20.80;88.40
15231;DHT22;32569;51.762;8.564;2022-09-01T09:34:28;20.90;88.10
15231;DHT22;32569;51.762;8.564;2022-09-01T09:37:00;20.90;88.40
15231;DHT22;32569;51.762;8.564;2022-09-01T09:39:27;20.80;88.10
15231;DHT22;32569;51.762;8.564;2022-09-01T09:42:04;20.80;88.50
15231;DHT22;32569;51.762;8.564;2022-09-01T09:44:38;20.90;89.00
15231;DHT22;32569;51.762;8.564;2022-09-01T09:47:06;21.00;88.60
15231;DHT22;32569;51.762;8.564;2022-09-01T09:49:35;20.90;87.00
15231;DHT22;32569;51.762;8.564;2022-09-01T09:52:15;20.70;87.80
15231;DHT22;32569;51.762;8.564;2022-09-01T09:54:58;20.80;86.30
15231;DHT22;32569;51.762;8.564;2022-09-01T09:57:28;20.80;86.60
15231;DHT22;32569;51.762;8.564;2022-09-01T09:59:59;21.00;87.60
15231;DHT22;32569;51.762;8.564;2022-09-01T10:02:31;21.30;86.40
15231;DHT22;32569;51.762;8.564;2022-09-01T10:05:00;21.30;86.20
15231;DHT22;32569;51.762;8.564;2022-09-01T10:07:30;21.60;85.30
15231;DHT22;32569;51.762;8.564;2022-09-01T10:10:00;21.60;84.40
15231;DHT22;32569;51.762;8.564;2022-09-01T10:12:28;21.90;83.50
15231;DHT22;32569;51.762;8.564;2022-09-01T10:14:59;21.60;84.60
15231;DHT22;32569;51.762;8.564;2022-09-01T10:17:31;21.70;83.20
15231;DHT22;32569;51.762;8.564;2022-09-01T10:20:02;21.40;83.60
15231;DHT22;32569;51.762;8.564;2022-09-01T10:22:33;21.10;84.80
15231;DHT22;32569;51.762;8.564;2022-09-01T10:25:00;21.10;85.30
15231;DHT22;32569;51.762;8.564;2022-09-01T10:27:30;21.40;84.10
15231;DHT22;32569;51.762;8.564;2022-09-01T10:30:04;22.00;84.00
15231;DHT22;32569;51.762;8.564;2022-09-01T10:32:37;22.10;82.20
15231;DHT22;32569;51.762;8.564;2022-09-01T10:35:07;22.30;82.20
15231;DHT22;32569;51.762;8.564;2022-09-01T10:37:35;22.30;81.60
15231;DHT22;32569;51.762;8.564;2022-09-01T10:40:14;22.20;80.80
15231;DHT22;32569;51.762;8.564;2022-09-01T10:42:42;22.30;82.90
15231;DHT22;32569;51.762;8.564;2022-09-01T10:45:19;22.30;81.30
15231;DHT22;32569;51.762;8.564;2022-09-01T10:47:55;22.10;81.50
15231;DHT22;32569;51.762;8.564;2022-09-01T10:50:25;21.90;81.20
15231;DHT22;32569;51.762;8.564;2022-09-01T10:53:01;21.80;81.60
15231;DHT22;32569;51.762;8.564;2022-09-01T10:55:33;21.80;84.20
15231;DHT22;32569;51.762;8.564;2022-09-01T10:58:21;21.60;85.20
15231;DHT22;32569;51.762;8.564;2022-09-01T11:00:52;21.40;85.00
15231;DHT22;32569;51.762;8.564;2022-09-01T11:03:38;21.40;83.40
15231;DHT22;32569;51.762;8.564;2022-09-01T11:09:26;21.70;84.30
15231;DHT22;32569;51.762;8.564;2022-09-01T11:12:11;21.80;82.80
15231;DHT22;32569;51.762;8.564;2022-09-01T11:14:49;21.80;83.80
15231;DHT22;32569;51.762;8.564;2022-09-01T11:17:19;22.30;84.60
15231;DHT22;32569;51.762;8.564;2022-09-01T11:19:54;22.40;81.50
15231;DHT22;32569;51.762;8.564;2022-09-01T11:22:34;22.00;81.80
15231;DHT22;32569;51.762;8.564;2022-09-01T11:30:51;22.40;82.80
15231;DHT22;32569;51.762;8.564;2022-09-01T11:33:39;22.00;81.30
15231;DHT22;32569;51.762;8.564;2022-09-01T11:36:15;21.90;81.90
15231;DHT22;32569;51.762;8.564;2022-09-01T11:38:48;21.80;81.40
15231;DHT22;32569;51.762;8.564;2022-09-01T11:41:21;21.60;80.20
15231;DHT22;32569;51.762;8.564;2022-09-01T11:43:50;21.60;81.70
15231;DHT22;32569;51.762;8.564;2022-09-01T11:46:24;21.50;81.30
15231;DHT22;32569;51.762;8.564;2022-09-01T11:48:53;21.50;81.20
15231;DHT22;32569;51.762;8.564;2022-09-01T11:51:21;21.40;82.00
15231;DHT22;32569;51.762;8.564;2022-09-01T11:53:49;21.40;82.70
15231;DHT22;32569;51.762;8.564;2022-09-01T11:56:19;21.80;82.00
15231;DHT22;32569;51.762;8.564;2022-09-01T11:58:49;21.80;81.40
15231;DHT22;32569;51.762;8.564;2022-09-01T12:01:19;21.80;81.80
15231;DHT22;32569;51.762;8.564;2022-09-01T12:03:48;21.80;82.30
15231;DHT22;32569;51.762;8.564;2022-09-01T12:06:22;21.70;83.70
15231;DHT22;32569;51.762;8.564;2022-09-01T12:08:55;21.70;83.20
15231;DHT22;32569;51.762;8.564;2022-09-01T12:11:24;21.60;83.00
15231;DHT22;32569;51.762;8.564;2022-09-01T12:13:57;21.50;82.50
15231;DHT22;32569;51.762;8.564;2022-09-01T12:16:25;21.40;83.60
15231;DHT22;32569;51.762;8.564;2022-09-01T12:18:54;21.50;83.50
15231;DHT22;32569;51.762;8.564;2022-09-01T12:21:27;21.50;82.80
15231;DHT22;32569;51.762;8.564;2022-09-01T12:24:10;21.60;82.70
15231;DHT22;32569;51.762;8.564;2022-09-01T12:26:38;21.80;83.30
15231;DHT22;32569;51.762;8.564;2022-09-01T12:29:05;22.00;81.70
15231;DHT22;32569;51.762;8.564;2022-09-01T12:31:33;22.30;78.80
15231;DHT22;32569;51.762;8.564;2022-09-01T12:34:00;22.30;79.20
15231;DHT22;32569;51.762;8.564;2022-09-01T12:36:31;22.20;80.30
15231;DHT22;32569;51.762;8.564;2022-09-01T12:39:20;22.40;79.40
15231;DHT22;32569;51.762;8.564;2022-09-01T12:42:02;22.50;79.10
15231;DHT22;32569;51.762;8.564;2022-09-01T12:44:30;22.40;78.70
15231;DHT22;32569;51.762;8.564;2022-09-01T12:47:00;22.50;78.80
15231;DHT22;32569;51.762;8.564;2022-09-01T12:49:35;22.30;78.80
15231;DHT22;32569;51.762;8.564;2022-09-01T12:52:25;22.60;79.90
15231;DHT22;32569;51.762;8.564;2022-09-01T12:55:05;22.70;78.20
15231;DHT22;32569;51.762;8.564;2022-09-01T12:57:35;22.70;77.90
15231;DHT22;32569;51.762;8.564;2022-09-01T13:00:14;22.50;78.30
15231;DHT22;32569;51.762;8.564;2022-09-01T13:02:44;22.60;78.20
15231;DHT22;32569;51.762;8.564;2022-09-01T13:05:20;22.80;78.90
15231;DHT22;32569;51.762;8.564;2022-09-01T13:07:51;23.10;78.00
15231;DHT22;32569;51.762;8.564;2022-09-01T13:10:18;23.00;77.80
15231;DHT22;32569;51.762;8.564;2022-09-01T13:12:45;23.20;79.40
15231;DHT22;32569;51.762;8.564;2022-09-01T13:15:12;23.20;79.60
15231;DHT22;32569;51.762;8.564;2022-09-01T13:17:38;22.90;80.30
15231;DHT22;32569;51.762;8.564;2022-09-01T13:20:06;22.90;80.10
15231;DHT22;32569;51.762;8.564;2022-09-01T13:22:33;22.90;77.70
15231;DHT22;32569;51.762;8.564;2022-09-01T13:25:01;23.00;77.30
15231;DHT22;32569;51.762;8.564;2022-09-01T13:27:28;23.10;77.20
15231;DHT22;32569;51.762;8.564;2022-09-01T13:29:54;23.30;76.80
15231;DHT22;32569;51.762;8.564;2022-09-01T13:32:22;23.30;77.90
15231;DHT22;32569;51.762;8.564;2022-09-01T13:34:49;23.20;77.30
15231;DHT22;32569;51.762;8.564;2022-09-01T13:37:16;23.20;77.00
15231;DHT22;32569;51.762;8.564;2022-09-01T13:39:43;23.10;77.40
15231;DHT22;32569;51.762;8.564;2022-09-01T13:42:12;22.80;79.40
15231;DHT22;32569;51.762;8.564;2022-09-01T13:44:39;22.40;81.10
15231;DHT22;32569;51.762;8.564;2022-09-01T13:47:06;22.60;81.60
15231;DHT22;32569;51.762;8.564;2022-09-01T13:49:33;22.60;81.30
15231;DHT22;32569;51.762;8.564;2022-09-01T13:52:00;22.80;81.10
15231;DHT22;32569;51.762;8.564;2022-09-01T13:54:26;22.50;81.20
15231;DHT22;32569;51.762;8.564;2022-09-01T13:56:53;22.50;81.70
15231;DHT22;32569;51.762;8.564;2022-09-01T13:59:22;22.50;81.50
15231;DHT22;32569;51.762;8.564;2022-09-01T14:01:49;22.60;81.60
15231;DHT22;32569;51.762;8.564;2022-09-01T14:04:15;22.70;81.60
15231;DHT22;32569;51.762;8.564;2022-09-01T14:06:44;22.60;81.00
15231;DHT22;32569;51.762;8.564;2022-09-01T14:09:12;22.50;81.90
15231;DHT22;32569;51.762;8.564;2022-09-01T14:11:40;22.30;81.80
15231;DHT22;32569;51.762;8.564;2022-09-01T14:14:07;22.50;82.40
15231;DHT22;32569;51.762;8.564;2022-09-01T14:16:34;22.70;81.60
15231;DHT22;32569;51.762;8.564;2022-09-01T14:19:01;22.50;81.50
15231;DHT22;32569;51.762;8.564;2022-09-01T14:21:28;22.60;82.50
15231;DHT22;32569;51.762;8.564;2022-09-01T14:23:55;22.70;80.90
15231;DHT22;32569;51.762;8.564;2022-09-01T14:26:22;22.60;81.60
15231;DHT22;32569;51.762;8.564;2022-09-01T14:28:49;22.50;81.80
15231;DHT22;32569;51.762;8.564;2022-09-01T14:31:17;22.60;81.70
15231;DHT22;32569;51.762;8.564;2022-09-01T14:33:45;22.70;81.30
15231;DHT22;32569;51.762;8.564;2022-09-01T14:36:17;22.70;81.60
15231;DHT22;32569;51.762;8.564;2022-09-01T14:38:44;22.60;81.10
15231;DHT22;32569;51.762;8.564;2022-09-01T14:41:12;22.60;81.10
15231;DHT22;32569;51.762;8.564;2022-09-01T14:43:39;22.60;81.90
15231;DHT22;32569;51.762;8.564;2022-09-01T14:46:09;22.60;81.10
15231;DHT22;32569;51.762;8.564;2022-09-01T14:48:38;22.60;81.60
15231;DHT22;32569;51.762;8.564;2022-09-01T14:51:07;22.60;81.60
15231;DHT22;32569;51.762;8.564;2022-09-01T14:53:34;22.70;81.80
15231;DHT22;32569;51.762;8.564;2022-09-01T14:56:02;22.80;81.40
15231;DHT22;32569;51.762;8.564;2022-09-01T14:58:29;22.70;81.40
15231;DHT22;32569;51.762;8.564;2022-09-01T15:00:56;22.70;80.80
15231;DHT22;32569;51.762;8.564;2022-09-01T15:03:23;22.60;80.40
15231;DHT22;32569;51.762;8.564;2022-09-01T15:05:51;22.60;80.80
15231;DHT22;32569;51.762;8.564;2022-09-01T15:08:20;22.60;80.60
15231;DHT22;32569;51.762;8.564;2022-09-01T15:10:48;22.50;80.40
15231;DHT22;32569;51.762;8.564;2022-09-01T15:13:14;22.30;80.60
15231;DHT22;32569;51.762;8.564;2022-09-01T15:15:41;22.30;81.10
15231;DHT22;32569;51.762;8.564;2022-09-01T15:18:08;22.40;80.50
15231;DHT22;32569;51.762;8.564;2022-09-01T15:20:39;22.50;80.70
15231;DHT22;32569;51.762;8.564;2022-09-01T15:23:14;22.50;80.70
15231;DHT22;32569;51.762;8.564;2022-09-01T15:25:43;22.70;81.20
15231;DHT22;32569;51.762;8.564;2022-09-01T15:28:10;22.80;80.60
15231;DHT22;32569;51.762;8.564;2022-09-01T15:30:38;22.90;80.90
15231;DHT22;32569;51.762;8.564;2022-09-01T15:33:05;22.80;79.90
15231;DHT22;32569;51.762;8.564;2022-09-01T15:35:33;22.70;80.20
15231;DHT22;32569;51.762;8.564;2022-09-01T15:38:00;22.80;80.40
15231;DHT22;32569;51.762;8.564;2022-09-01T15:40:27;22.90;79.90
15231;DHT22;32569;51.762;8.564;2022-09-01T15:42:55;22.70;79.20
15231;DHT22;32569;51.762;8.564;2022-09-01T15:45:23;22.70;79.30
15231;DHT22;32569;51.762;8.564;2022-09-01T15:47:50;22.60;79.50
15231;DHT22;32569;51.762;8.564;2022-09-01T15:50:19;22.60;78.90
15231;DHT22;32569;51.762;8.564;2022-09-01T15:52:49;22.60;78.80
15231;DHT22;32569;51.762;8.564;2022-09-01T15:55:17;22.60;79.40
15231;DHT22;32569;51.762;8.564;2022-09-01T15:57:44;22.70;79.40